sensor_id;sensor_type;location;lat;lon;timestamp;P1;durP1;ratioP1;P2;durP2;ratioP2
60233;SDS011;49514;43.538;-5.708;2022-10-31T00:00:57;32.47;;;5.50;;
60233;SDS011;49514;43.538;-5.708;2022-10-31T00:03:25;17.52;;;5.00;;
60233;SDS011;49514;43.538;-5.708;2022-10-31T00:05:52;18.77;;;4.43;;
60233;SDS011;49514;43.538;-5.708;2022-10-31T00:08:19;21.08;;;4.47;;
60233;SDS011;49514;43.538;-5.708;2022-10-31T00:10:46;15.02;;;3.15;;
60233;SDS011;49514;43.538;-5.708;2022-10-31T00:13:13;12.48;;;3.35;;
60233;SDS011;49514;43.538;-5.708;2022-10-31T00:15:41;12.38;;;3.13;;
60233;SDS011;49514;43.538;-5.708;2022-10-31T00:18:09;9.65;;;2.70;;
60233;SDS011;49514;43.538;-5.708;2022-10-31T00:20:36;15.23;;;3.33;;
60233;SDS011;49514;43.538;-5.708;2022-10-31T00:23:03;10.75;;;3.30;;
60233;SDS011;49514;43.538;-5.708;2022-10-31T00:25:35;16.88;;;3.45;;
60233;SDS011;49514;43.538;-5.708;2022-10-31T00:28:04;7.47;;;2.50;;
60233;SDS011;49514;43.538;-5.708;2022-10-31T00:30:31;8.18;;;2.10;;
60233;SDS011;49514;43.538;-5.708;2022-10-31T00:32:58;7.85;;;2.22;;
60233;SDS011;49514;43.538;-5.708;2022-10-31T00:35:26;10.27;;;2.88;;
60233;SDS011;49514;43.538;-5.708;2022-10-31T00:37:53;8.27;;;2.30;;
60233;SDS011;49514;43.538;-5.708;2022-10-31T00:40:20;12.60;;;2.75;;
60233;SDS011;49514;43.538;-5.708;2022-10-31T00:42:47;6.05;;;2.42;;
60233;SDS011;49514;43.538;-5.708;2022-10-31T00:45:14;8.90;;;2.47;;
60233;SDS011;49514;43.538;-5.708;2022-10-31T00:47:41;7.57;;;2.70;;
60233;SDS011;49514;43.538;-5.708;2022-10-31T00:50:08;6.07;;;1.95;;
60233;SDS011;49514;43.538;-5.708;2022-10-31T00:52:34;9.93;;;2.67;;
60233;SDS011;49514;43.538;-5.708;2022-10-31T00:55:02;6.57;;;2.50;;
60233;SDS011;49514;43.538;-5.708;2022-10-31T00:57:29;7.82;;;2.50;;
60233;SDS011;49514;43.538;-5.708;2022-10-31T00:59:55;6.35;;;2.55;;
60233;SDS011;49514;43.538;-5.708;2022-10-31T01:02:22;7.05;;;2.63;;
60233;SDS011;49514;43.538;-5.708;2022-10-31T01:04:49;6.22;;;2.10;;
60233;SDS011;49514;43.538;-5.708;2022-10-31T01:07:15;7.60;;;2.38;;
60233;SDS011;49514;43.538;-5.708;2022-10-31T01:09:44;6.07;;;2.38;;
60233;SDS011;49514;43.538;-5.708;2022-10-31T01:12:10;10.70;;;2.55;;
60233;SDS011;49514;43.538;-5.708;2022-10-31T01:14:42;5.05;;;1.90;;
60233;SDS011;49514;43.538;-5.708;2022-10-31T01:17:12;5.45;;;1.85;;
60233;SDS011;49514;43.538;-5.708;2022-10-31T01:19:39;8.38;;;2.17;;
60233;SDS011;49514;43.538;-5.708;2022-10-31T01:22:06;8.15;;;2.15;;
60233;SDS011;49514;43.538;-5.708;2022-10-31T01:24:33;6.93;;;2.50;;
60233;SDS011;49514;43.538;-5.708;2022-10-31T01:27:01;13.98;;;3.03;;
60233;SDS011;49514;43.538;-5.708;2022-10-31T01:29:31;13.30;;;3.08;;
60233;SDS011;49514;43.538;-5.708;2022-10-31T01:31:58;11.23;;;2.90;;
60233;SDS011;49514;43.538;-5.708;2022-10-31T01:34:25;9.02;;;2.67;;
60233;SDS011;49514;43.538;-5.708;2022-10-31T01:36:52;6.32;;;2.05;;
60233;SDS011;49514;43.538;-5.708;2022-10-31T01:39:18;5.20;;;1.98;;
60233;SDS011;49514;43.538;-5.708;2022-10-31T01:41:50;6.68;;;2.30;;
60233;SDS011;49514;43.538;-5.708;2022-10-31T01:46:46;5.70;;;2.42;;
60233;SDS011;49514;43.538;-5.708;2022-10-31T01:51:49;6.32;;;2.20;;
60233;SDS011;49514;43.538;-5.708;2022-10-31T01:54:21;6.40;;;2.35;;
60233;SDS011;49514;43.538;-5.708;2022-10-31T01:56:50;5.18;;;2.00;;
60233;SDS011;49514;43.538;-5.708;2022-10-31T01:59:20;4.95;;;2.50;;
60233;SDS011;49514;43.538;-5.708;2022-10-31T02:01:49;4.22;;;2.20;;
60233;SDS011;49514;43.538;-5.708;2022-10-31T02:04:18;5.55;;;2.03;;
60233;SDS011;49514;43.538;-5.708;2022-10-31T02:07:06;7.78;;;2.55;;
60233;SDS011;49514;43.538;-5.708;2022-10-31T02:09:36;9.95;;;3.00;;
60233;SDS011;49514;43.538;-5.708;2022-10-31T02:12:04;15.73;;;3.75;;
60233;SDS011;49514;43.538;-5.708;2022-10-31T02:14:32;16.90;;;3.70;;
60233;SDS011;49514;43.538;-5.708;2022-10-31T02:16:59;9.98;;;4.00;;
60233;SDS011;49514;43.538;-5.708;2022-10-31T02:24:58;13.05;;;4.38;;
60233;SDS011;49514;43.538;-5.708;2022-10-31T02:33:37;7.88;;;2.50;;
60233;SDS011;49514;43.538;-5.708;2022-10-31T02:42:01;8.45;;;2.53;;
60233;SDS011;49514;43.538;-5.708;2022-10-31T02:47:27;6.22;;;2.50;;
60233;SDS011;49514;43.538;-5.708;2022-10-31T02:52:29;6.50;;;2.15;;
60233;SDS011;49514;43.538;-5.708;2022-10-31T02:58:05;5.00;;;2.15;;
60233;SDS011;49514;43.538;-5.708;2022-10-31T03:00:39;5.88;;;2.20;;
60233;SDS011;49514;43.538;-5.708;2022-10-31T03:03:23;3.20;;;1.80;;
60233;SDS011;49514;43.538;-5.708;2022-10-31T03:11:58;7.35;;;1.90;;
60233;SDS011;49514;43.538;-5.708;2022-10-31T03:14:43;7.93;;;2.13;;
60233;SDS011;49514;43.538;-5.708;2022-10-31T03:17:26;6.15;;;2.13;;
60233;SDS011;49514;43.538;-5.708;2022-10-31T03:19:59;5.60;;;1.90;;
60233;SDS011;49514;43.538;-5.708;2022-10-31T03:22:29;4.22;;;1.90;;
60233;SDS011;49514;43.538;-5.708;2022-10-31T03:25:00;5.90;;;2.20;;
60233;SDS011;49514;43.538;-5.708;2022-10-31T03:27:32;6.63;;;1.88;;
60233;SDS011;49514;43.538;-5.708;2022-10-31T03:30:03;3.28;;;2.00;;
60233;SDS011;49514;43.538;-5.708;2022-10-31T03:32:45;3.17;;;1.52;;
60233;SDS011;49514;43.538;-5.708;2022-10-31T03:35:14;3.00;;;1.92;;
60233;SDS011;49514;43.538;-5.708;2022-10-31T03:37:42;4.80;;;2.10;;
60233;SDS011;49514;43.538;-5.708;2022-10-31T03:40:13;5.40;;;1.85;;
60233;SDS011;49514;43.538;-5.708;2022-10-31T03:42:42;4.18;;;2.00;;
60233;SDS011;49514;43.538;-5.708;2022-10-31T03:45:11;9.52;;;2.70;;
60233;SDS011;49514;43.538;-5.708;2022-10-31T03:47:40;7.28;;;2.95;;
60233;SDS011;49514;43.538;-5.708;2022-10-31T03:50:09;9.23;;;3.20;;
60233;SDS011;49514;43.538;-5.708;2022-10-31T03:58:10;5.88;;;2.60;;
60233;SDS011;49514;43.538;-5.708;2022-10-31T04:00:48;9.45;;;2.70;;
60233;SDS011;49514;43.538;-5.708;2022-10-31T04:03:22;9.35;;;2.90;;
60233;SDS011;49514;43.538;-5.708;2022-10-31T04:05:55;10.65;;;3.00;;
60233;SDS011;49514;43.538;-5.708;2022-10-31T04:08:26;16.80;;;3.67;;
60233;SDS011;49514;43.538;-5.708;2022-10-31T04:10:56;20.23;;;5.28;;
60233;SDS011;49514;43.538;-5.708;2022-10-31T04:13:26;23.55;;;5.43;;
60233;SDS011;49514;43.538;-5.708;2022-10-31T04:16:07;17.83;;;4.60;;
60233;SDS011;49514;43.538;-5.708;2022-10-31T04:18:35;10.43;;;4.38;;
60233;SDS011;49514;43.538;-5.708;2022-10-31T04:21:06;14.75;;;4.50;;
60233;SDS011;49514;43.538;-5.708;2022-10-31T04:23:35;14.50;;;4.70;;
60233;SDS011;49514;43.538;-5.708;2022-10-31T04:26:13;23.00;;;6.28;;
60233;SDS011;49514;43.538;-5.708;2022-10-31T04:28:43;23.50;;;6.63;;
60233;SDS011;49514;43.538;-5.708;2022-10-31T04:31:11;24.45;;;6.65;;
60233;SDS011;49514;43.538;-5.708;2022-10-31T04:33:38;24.83;;;7.05;;
60233;SDS011;49514;43.538;-5.708;2022-10-31T04:36:05;20.05;;;6.90;;
60233;SDS011;49514;43.538;-5.708;2022-10-31T04:38:32;23.58;;;6.63;;
60233;SDS011;49514;43.538;-5.708;2022-10-31T04:40:59;20.17;;;5.88;;
60233;SDS011;49514;43.538;-5.708;2022-10-31T04:43:55;15.90;;;5.30;;
60233;SDS011;49514;43.538;-5.708;2022-10-31T04:46:22;21.05;;;5.45;;
60233;SDS011;49514;43.538;-5.708;2022-10-31T04:48:49;12.10;;;4.55;;
60233;SDS011;49514;43.538;-5.708;2022-10-31T04:51:16;16.55;;;4.00;;
60233;SDS011;49514;43.538;-5.708;2022-10-31T04:53:43;6.57;;;3.00;;
60233;SDS011;49514;43.538;-5.708;2022-10-31T04:56:42;8.40;;;3.28;;
60233;SDS011;49514;43.538;-5.708;2022-10-31T04:59:14;8.85;;;3.15;;
60233;SDS011;49514;43.538;-5.708;2022-10-31T05:01:48;7.57;;;2.72;;
60233;SDS011;49514;43.538;-5.708;2022-10-31T05:04:18;11.00;;;3.08;;
60233;SDS011;49514;43.538;-5.708;2022-10-31T05:06:44;8.43;;;3.25;;
60233;SDS011;49514;43.538;-5.708;2022-10-31T05:09:11;6.82;;;3.13;;
60233;SDS011;49514;43.538;-5.708;2022-10-31T05:11:38;7.68;;;3.28;;
60233;SDS011;49514;43.538;-5.708;2022-10-31T05:14:25;10.18;;;3.22;;
60233;SDS011;49514;43.538;-5.708;2022-10-31T05:17:15;9.43;;;2.92;;
60233;SDS011;49514;43.538;-5.708;2022-10-31T05:20:05;5.40;;;2.55;;
60233;SDS011;49514;43.538;-5.708;2022-10-31T05:22:52;8.95;;;3.03;;
60233;SDS011;49514;43.538;-5.708;2022-10-31T05:25:21;5.80;;;2.50;;
60233;SDS011;49514;43.538;-5.708;2022-10-31T05:27:50;9.55;;;3.47;;
60233;SDS011;49514;43.538;-5.708;2022-10-31T05:30:28;10.63;;;3.03;;
60233;SDS011;49514;43.538;-5.708;2022-10-31T05:32:57;6.68;;;2.85;;
60233;SDS011;49514;43.538;-5.708;2022-10-31T05:35:44;11.88;;;3.42;;
60233;SDS011;49514;43.538;-5.708;2022-10-31T05:38:23;10.10;;;2.92;;
60233;SDS011;49514;43.538;-5.708;2022-10-31T05:40:49;11.85;;;3.40;;
60233;SDS011;49514;43.538;-5.708;2022-10-31T05:43:16;8.70;;;2.55;;
60233;SDS011;49514;43.538;-5.708;2022-10-31T05:45:42;11.02;;;3.15;;
60233;SDS011;49514;43.538;-5.708;2022-10-31T05:48:23;6.53;;;3.40;;
60233;SDS011;49514;43.538;-5.708;2022-10-31T05:51:13;12.38;;;3.35;;
60233;SDS011;49514;43.538;-5.708;2022-10-31T05:53:39;9.75;;;3.55;;
60233;SDS011;49514;43.538;-5.708;2022-10-31T05:56:06;11.20;;;2.90;;
60233;SDS011;49514;43.538;-5.708;2022-10-31T05:58:33;8.45;;;2.95;;
60233;SDS011;49514;43.538;-5.708;2022-10-31T06:01:03;7.60;;;2.83;;
60233;SDS011;49514;43.538;-5.708;2022-10-31T06:03:32;7.95;;;3.20;;
60233;SDS011;49514;43.538;-5.708;2022-10-31T06:06:02;5.75;;;3.05;;
60233;SDS011;49514;43.538;-5.708;2022-10-31T06:08:36;7.27;;;3.60;;
60233;SDS011;49514;43.538;-5.708;2022-10-31T06:11:06;11.55;;;3.88;;
60233;SDS011;49514;43.538;-5.708;2022-10-31T06:13:52;6.60;;;2.70;;
60233;SDS011;49514;43.538;-5.708;2022-10-31T06:16:23;5.88;;;2.70;;
60233;SDS011;49514;43.538;-5.708;2022-10-31T06:18:51;7.00;;;2.53;;
60233;SDS011;49514;43.538;-5.708;2022-10-31T06:21:18;6.90;;;2.30;;
60233;SDS011;49514;43.538;-5.708;2022-10-31T06:23:47;6.10;;;2.78;;
60233;SDS011;49514;43.538;-5.708;2022-10-31T06:26:43;7.60;;;3.08;;
60233;SDS011;49514;43.538;-5.708;2022-10-31T06:29:10;7.68;;;2.90;;
60233;SDS011;49514;43.538;-5.708;2022-10-31T06:31:53;11.02;;;2.90;;
60233;SDS011;49514;43.538;-5.708;2022-10-31T06:34:20;7.85;;;2.50;;
60233;SDS011;49514;43.538;-5.708;2022-10-31T06:36:47;5.53;;;2.65;;
60233;SDS011;49514;43.538;-5.708;2022-10-31T06:39:14;7.65;;;2.88;;
60233;SDS011;49514;43.538;-5.708;2022-10-31T06:41:41;12.52;;;3.00;;
60233;SDS011;49514;43.538;-5.708;2022-10-31T06:44:09;10.80;;;3.00;;
60233;SDS011;49514;43.538;-5.708;2022-10-31T06:46:56;12.50;;;3.53;;
60233;SDS011;49514;43.538;-5.708;2022-10-31T06:49:38;10.48;;;3.60;;
60233;SDS011;49514;43.538;-5.708;2022-10-31T06:52:10;16.23;;;3.42;;
60233;SDS011;49514;43.538;-5.708;2022-10-31T06:54:37;15.23;;;3.67;;
60233;SDS011;49514;43.538;-5.708;2022-10-31T06:57:04;13.07;;;3.20;;
60233;SDS011;49514;43.538;-5.708;2022-10-31T06:59:31;17.77;;;3.72;;
60233;SDS011;49514;43.538;-5.708;2022-10-31T07:02:04;20.77;;;3.90;;
60233;SDS011;49514;43.538;-5.708;2022-10-31T07:04:32;14.02;;;3.75;;
60233;SDS011;49514;43.538;-5.708;2022-10-31T07:06:59;13.68;;;3.75;;
60233;SDS011;49514;43.538;-5.708;2022-10-31T07:09:26;15.65;;;3.55;;
60233;SDS011;49514;43.538;-5.708;2022-10-31T07:11:54;15.40;;;3.50;;
60233;SDS011;49514;43.538;-5.708;2022-10-31T07:14:21;14.00;;;4.30;;
60233;SDS011;49514;43.538;-5.708;2022-10-31T07:16:48;16.55;;;3.78;;
60233;SDS011;49514;43.538;-5.708;2022-10-31T07:19:17;21.67;;;4.35;;
60233;SDS011;49514;43.538;-5.708;2022-10-31T07:21:45;16.73;;;4.15;;
60233;SDS011;49514;43.538;-5.708;2022-10-31T07:24:14;16.13;;;3.92;;
60233;SDS011;49514;43.538;-5.708;2022-10-31T07:26:41;12.95;;;3.78;;
60233;SDS011;49514;43.538;-5.708;2022-10-31T07:29:09;15.82;;;4.43;;
60233;SDS011;49514;43.538;-5.708;2022-10-31T07:31:36;21.13;;;4.47;;
60233;SDS011;49514;43.538;-5.708;2022-10-31T07:34:09;21.13;;;4.05;;
60233;SDS011;49514;43.538;-5.708;2022-10-31T07:36:59;14.75;;;3.95;;
60233;SDS011;49514;43.538;-5.708;2022-10-31T07:39:26;17.85;;;3.78;;
60233;SDS011;49514;43.538;-5.708;2022-10-31T07:41:53;15.68;;;3.78;;
60233;SDS011;49514;43.538;-5.708;2022-10-31T07:44:20;12.95;;;3.90;;
60233;SDS011;49514;43.538;-5.708;2022-10-31T07:46:52;17.27;;;4.13;;
60233;SDS011;49514;43.538;-5.708;2022-10-31T07:49:22;13.65;;;3.72;;
60233;SDS011;49514;43.538;-5.708;2022-10-31T07:52:09;17.40;;;3.78;;
60233;SDS011;49514;43.538;-5.708;2022-10-31T07:54:44;23.30;;;4.20;;
60233;SDS011;49514;43.538;-5.708;2022-10-31T07:57:12;16.15;;;3.70;;
60233;SDS011;49514;43.538;-5.708;2022-10-31T07:59:39;13.45;;;3.78;;
60233;SDS011;49514;43.538;-5.708;2022-10-31T08:02:07;7.03;;;2.92;;
60233;SDS011;49514;43.538;-5.708;2022-10-31T08:04:46;8.88;;;3.08;;
60233;SDS011;49514;43.538;-5.708;2022-10-31T08:07:29;7.75;;;2.83;;
60233;SDS011;49514;43.538;-5.708;2022-10-31T08:10:04;10.50;;;2.60;;
60233;SDS011;49514;43.538;-5.708;2022-10-31T08:12:33;10.18;;;3.22;;
60233;SDS011;49514;43.538;-5.708;2022-10-31T08:15:00;10.43;;;3.45;;
60233;SDS011;49514;43.538;-5.708;2022-10-31T08:17:27;15.32;;;3.33;;
60233;SDS011;49514;43.538;-5.708;2022-10-31T08:19:57;12.05;;;3.55;;
60233;SDS011;49514;43.538;-5.708;2022-10-31T08:24:55;9.20;;;2.75;;
60233;SDS011;49514;43.538;-5.708;2022-10-31T08:27:22;11.15;;;2.83;;
60233;SDS011;49514;43.538;-5.708;2022-10-31T08:29:49;7.43;;;2.72;;
60233;SDS011;49514;43.538;-5.708;2022-10-31T08:32:15;20.38;;;4.95;;
60233;SDS011;49514;43.538;-5.708;2022-10-31T08:34:57;11.00;;;3.25;;
60233;SDS011;49514;43.538;-5.708;2022-10-31T08:37:43;11.35;;;3.17;;
60233;SDS011;49514;43.538;-5.708;2022-10-31T08:40:10;14.70;;;4.45;;
60233;SDS011;49514;43.538;-5.708;2022-10-31T08:42:40;20.35;;;6.72;;
60233;SDS011;49514;43.538;-5.708;2022-10-31T08:47:33;22.27;;;6.95;;
60233;SDS011;49514;43.538;-5.708;2022-10-31T08:50:00;31.80;;;7.43;;
60233;SDS011;49514;43.538;-5.708;2022-10-31T08:52:28;32.28;;;9.73;;
60233;SDS011;49514;43.538;-5.708;2022-10-31T08:55:00;55.40;;;12.18;;
60233;SDS011;49514;43.538;-5.708;2022-10-31T08:57:45;43.67;;;10.85;;
60233;SDS011;49514;43.538;-5.708;2022-10-31T09:00:12;40.03;;;10.05;;
60233;SDS011;49514;43.538;-5.708;2022-10-31T09:03:08;24.80;;;7.18;;
60233;SDS011;49514;43.538;-5.708;2022-10-31T09:05:36;15.52;;;5.95;;
60233;SDS011;49514;43.538;-5.708;2022-10-31T09:08:04;17.92;;;5.63;;
60233;SDS011;49514;43.538;-5.708;2022-10-31T09:10:32;21.35;;;4.65;;
60233;SDS011;49514;43.538;-5.708;2022-10-31T09:13:06;12.27;;;3.60;;
60233;SDS011;49514;43.538;-5.708;2022-10-31T09:15:58;11.88;;;4.47;;
60233;SDS011;49514;43.538;-5.708;2022-10-31T09:18:25;18.65;;;4.95;;
60233;SDS011;49514;43.538;-5.708;2022-10-31T09:21:00;17.05;;;4.35;;
60233;SDS011;49514;43.538;-5.708;2022-10-31T09:23:29;30.25;;;5.75;;
60233;SDS011;49514;43.538;-5.708;2022-10-31T09:25:59;31.63;;;6.45;;
60233;SDS011;49514;43.538;-5.708;2022-10-31T09:28:37;30.75;;;6.97;;
60233;SDS011;49514;43.538;-5.708;2022-10-31T09:31:23;25.42;;;5.20;;
60233;SDS011;49514;43.538;-5.708;2022-10-31T09:34:06;27.75;;;6.22;;
60233;SDS011;49514;43.538;-5.708;2022-10-31T09:36:32;30.30;;;6.78;;
60233;SDS011;49514;43.538;-5.708;2022-10-31T09:38:59;18.42;;;5.05;;
60233;SDS011;49514;43.538;-5.708;2022-10-31T09:52:03;9.50;;;3.40;;
60233;SDS011;49514;43.538;-5.708;2022-10-31T09:54:44;8.00;;;2.55;;
60233;SDS011;49514;43.538;-5.708;2022-10-31T10:13:20;12.88;;;4.05;;
60233;SDS011;49514;43.538;-5.708;2022-10-31T10:23:58;16.48;;;5.70;;
60233;SDS011;49514;43.538;-5.708;2022-10-31T10:26:43;14.88;;;4.47;;
60233;SDS011;49514;43.538;-5.708;2022-10-31T10:32:11;19.13;;;6.50;;
60233;SDS011;49514;43.538;-5.708;2022-10-31T10:35:07;22.00;;;5.47;;
60233;SDS011;49514;43.538;-5.708;2022-10-31T10:37:40;21.98;;;6.18;;
60233;SDS011;49514;43.538;-5.708;2022-10-31T10:43:05;36.03;;;9.15;;
60233;SDS011;49514;43.538;-5.708;2022-10-31T10:45:59;36.40;;;10.60;;
60233;SDS011;49514;43.538;-5.708;2022-10-31T10:59:46;18.33;;;5.32;;
60233;SDS011;49514;43.538;-5.708;2022-10-31T11:02:21;6.63;;;2.60;;
60233;SDS011;49514;43.538;-5.708;2022-10-31T11:07:17;3.58;;;1.40;;
60233;SDS011;49514;43.538;-5.708;2022-10-31T11:12:22;4.05;;;2.03;;
60233;SDS011;49514;43.538;-5.708;2022-10-31T11:14:56;4.28;;;2.13;;
60233;SDS011;49514;43.538;-5.708;2022-10-31T11:17:37;2.20;;;1.00;;
60233;SDS011;49514;43.538;-5.708;2022-10-31T12:10:37;4.75;;;0.95;;
60233;SDS011;49514;43.538;-5.708;2022-10-31T12:16:07;10.30;;;4.00;;
60233;SDS011;49514;43.538;-5.708;2022-10-31T12:26:51;7.03;;;1.90;;
60233;SDS011;49514;43.538;-5.708;2022-10-31T13:06:18;2.63;;;1.20;;
60233;SDS011;49514;43.538;-5.708;2022-10-31T13:23:44;3.33;;;1.20;;
60233;SDS011;49514;43.538;-5.708;2022-10-31T13:26:20;7.15;;;1.75;;
60233;SDS011;49514;43.538;-5.708;2022-10-31T13:29:18;5.60;;;1.45;;
60233;SDS011;49514;43.538;-5.708;2022-10-31T13:31:45;4.50;;;1.30;;
60233;SDS011;49514;43.538;-5.708;2022-10-31T13:37:27;8.70;;;1.90;;
60233;SDS011;49514;43.538;-5.708;2022-10-31T13:52:51;2.45;;;0.70;;
60233;SDS011;49514;43.538;-5.708;2022-10-31T13:55:42;2.53;;;0.85;;
60233;SDS011;49514;43.538;-5.708;2022-10-31T13:58:22;2.75;;;0.60;;
60233;SDS011;49514;43.538;-5.708;2022-10-31T14:03:37;1.83;;;0.70;;
60233;SDS011;49514;43.538;-5.708;2022-10-31T14:06:06;0.93;;;0.65;;
60233;SDS011;49514;43.538;-5.708;2022-10-31T14:08:36;2.97;;;0.90;;
60233;SDS011;49514;43.538;-5.708;2022-10-31T14:11:07;3.95;;;0.60;;
60233;SDS011;49514;43.538;-5.708;2022-10-31T14:13:36;1.60;;;0.70;;
60233;SDS011;49514;43.538;-5.708;2022-10-31T14:19:08;1.83;;;0.60;;
60233;SDS011;49514;43.538;-5.708;2022-10-31T14:21:43;3.15;;;0.77;;
60233;SDS011;49514;43.538;-5.708;2022-10-31T14:27:01;1.50;;;0.70;;
60233;SDS011;49514;43.538;-5.708;2022-10-31T14:29:51;1.55;;;0.63;;
60233;SDS011;49514;43.538;-5.708;2022-10-31T14:32:22;3.15;;;0.82;;
60233;SDS011;49514;43.538;-5.708;2022-10-31T14:34:52;6.93;;;0.95;;
60233;SDS011;49514;43.538;-5.708;2022-10-31T14:40:10;20.48;;;2.33;;
60233;SDS011;49514;43.538;-5.708;2022-10-31T14:53:25;23.17;;;2.97;;
60233;SDS011;49514;43.538;-5.708;2022-10-31T15:05:55;16.08;;;1.98;;
60233;SDS011;49514;43.538;-5.708;2022-10-31T15:23:36;11.48;;;2.10;;
60233;SDS011;49514;43.538;-5.708;2022-10-31T15:26:14;11.90;;;1.60;;
60233;SDS011;49514;43.538;-5.708;2022-10-31T15:28:57;10.63;;;2.13;;
60233;SDS011;49514;43.538;-5.708;2022-10-31T16:01:25;10.20;;;1.90;;
60233;SDS011;49514;43.538;-5.708;2022-10-31T16:06:38;11.53;;;2.00;;
60233;SDS011;49514;43.538;-5.708;2022-10-31T16:09:21;10.77;;;2.13;;
60233;SDS011;49514;43.538;-5.708;2022-10-31T16:11:49;8.73;;;1.80;;
60233;SDS011;49514;43.538;-5.708;2022-10-31T16:14:23;9.60;;;2.10;;
60233;SDS011;49514;43.538;-5.708;2022-10-31T16:16:54;9.52;;;2.20;;
60233;SDS011;49514;43.538;-5.708;2022-10-31T16:22:09;9.75;;;1.90;;
60233;SDS011;49514;43.538;-5.708;2022-10-31T16:24:46;12.48;;;2.10;;
60233;SDS011;49514;43.538;-5.708;2022-10-31T16:27:24;13.43;;;2.22;;
60233;SDS011;49514;43.538;-5.708;2022-10-31T16:29:57;10.03;;;1.90;;
60233;SDS011;49514;43.538;-5.708;2022-10-31T16:37:40;12.70;;;2.10;;
60233;SDS011;49514;43.538;-5.708;2022-10-31T16:40:09;13.30;;;2.45;;
60233;SDS011;49514;43.538;-5.708;2022-10-31T16:42:39;16.65;;;2.40;;
60233;SDS011;49514;43.538;-5.708;2022-10-31T16:45:06;13.83;;;2.67;;
60233;SDS011;49514;43.538;-5.708;2022-10-31T16:47:39;17.60;;;2.57;;
60233;SDS011;49514;43.538;-5.708;2022-10-31T16:50:11;19.33;;;2.72;;
60233;SDS011;49514;43.538;-5.708;2022-10-31T16:52:39;19.70;;;2.38;;
60233;SDS011;49514;43.538;-5.708;2022-10-31T16:55:10;15.70;;;1.88;;
60233;SDS011;49514;43.538;-5.708;2022-10-31T16:57:37;14.55;;;1.90;;
60233;SDS011;49514;43.538;-5.708;2022-10-31T17:00:04;10.55;;;1.65;;
60233;SDS011;49514;43.538;-5.708;2022-10-31T17:02:32;9.20;;;1.92;;
60233;SDS011;49514;43.538;-5.708;2022-10-31T17:36:49;14.05;;;2.08;;
60233;SDS011;49514;43.538;-5.708;2022-10-31T17:39:17;17.98;;;2.38;;
60233;SDS011;49514;43.538;-5.708;2022-10-31T17:41:45;18.83;;;2.35;;
60233;SDS011;49514;43.538;-5.708;2022-10-31T17:44:15;17.17;;;3.08;;
60233;SDS011;49514;43.538;-5.708;2022-10-31T17:46:41;14.65;;;2.22;;
60233;SDS011;49514;43.538;-5.708;2022-10-31T17:49:09;12.98;;;2.22;;
60233;SDS011;49514;43.538;-5.708;2022-10-31T17:51:36;14.82;;;2.20;;
60233;SDS011;49514;43.538;-5.708;2022-10-31T17:54:04;20.52;;;2.47;;
60233;SDS011;49514;43.538;-5.708;2022-10-31T17:56:31;13.73;;;1.90;;
60233;SDS011;49514;43.538;-5.708;2022-10-31T17:58:58;15.55;;;2.17;;
60233;SDS011;49514;43.538;-5.708;2022-10-31T18:01:25;12.07;;;1.95;;
60233;SDS011;49514;43.538;-5.708;2022-10-31T18:03:51;14.93;;;2.40;;
60233;SDS011;49514;43.538;-5.708;2022-10-31T18:06:18;18.88;;;2.78;;
60233;SDS011;49514;43.538;-5.708;2022-10-31T18:08:45;15.65;;;2.40;;
60233;SDS011;49514;43.538;-5.708;2022-10-31T18:11:18;14.13;;;2.30;;
60233;SDS011;49514;43.538;-5.708;2022-10-31T18:13:46;19.83;;;2.38;;
60233;SDS011;49514;43.538;-5.708;2022-10-31T18:16:18;12.20;;;2.17;;
60233;SDS011;49514;43.538;-5.708;2022-10-31T18:18:49;16.27;;;2.08;;
60233;SDS011;49514;43.538;-5.708;2022-10-31T18:21:23;18.95;;;2.20;;
60233;SDS011;49514;43.538;-5.708;2022-10-31T18:23:52;24.92;;;2.63;;
60233;SDS011;49514;43.538;-5.708;2022-10-31T18:26:24;14.93;;;2.38;;
60233;SDS011;49514;43.538;-5.708;2022-10-31T18:28:52;19.50;;;2.35;;
60233;SDS011;49514;43.538;-5.708;2022-10-31T18:31:20;16.75;;;2.63;;
60233;SDS011;49514;43.538;-5.708;2022-10-31T18:33:47;19.65;;;2.58;;
60233;SDS011;49514;43.538;-5.708;2022-10-31T18:36:16;22.98;;;3.47;;
60233;SDS011;49514;43.538;-5.708;2022-10-31T18:38:43;21.93;;;3.07;;
60233;SDS011;49514;43.538;-5.708;2022-10-31T18:41:10;17.45;;;3.03;;
60233;SDS011;49514;43.538;-5.708;2022-10-31T18:43:38;24.38;;;3.38;;
60233;SDS011;49514;43.538;-5.708;2022-10-31T18:46:09;22.05;;;3.50;;
60233;SDS011;49514;43.538;-5.708;2022-10-31T18:48:39;19.67;;;3.38;;
60233;SDS011;49514;43.538;-5.708;2022-10-31T18:51:08;21.48;;;3.35;;
60233;SDS011;49514;43.538;-5.708;2022-10-31T18:53:36;16.75;;;2.95;;
60233;SDS011;49514;43.538;-5.708;2022-10-31T18:56:07;19.30;;;3.08;;
60233;SDS011;49514;43.538;-5.708;2022-10-31T18:58:35;18.55;;;2.80;;
60233;SDS011;49514;43.538;-5.708;2022-10-31T19:01:05;17.27;;;2.42;;
60233;SDS011;49514;43.538;-5.708;2022-10-31T19:03:35;16.45;;;3.00;;
60233;SDS011;49514;43.538;-5.708;2022-10-31T19:06:03;15.80;;;2.90;;
60233;SDS011;49514;43.538;-5.708;2022-10-31T19:08:31;17.63;;;2.75;;
60233;SDS011;49514;43.538;-5.708;2022-10-31T19:11:05;17.65;;;2.85;;
60233;SDS011;49514;43.538;-5.708;2022-10-31T19:13:34;19.80;;;3.13;;
60233;SDS011;49514;43.538;-5.708;2022-10-31T19:16:19;18.75;;;3.20;;
60233;SDS011;49514;43.538;-5.708;2022-10-31T19:18:46;21.20;;;3.63;;
60233;SDS011;49514;43.538;-5.708;2022-10-31T19:21:14;18.92;;;3.00;;
60233;SDS011;49514;43.538;-5.708;2022-10-31T19:23:42;17.77;;;3.08;;
60233;SDS011;49514;43.538;-5.708;2022-10-31T19:26:10;18.25;;;3.00;;
60233;SDS011;49514;43.538;-5.708;2022-10-31T19:28:38;23.80;;;3.43;;
60233;SDS011;49514;43.538;-5.708;2022-10-31T19:31:06;21.23;;;3.55;;
60233;SDS011;49514;43.538;-5.708;2022-10-31T19:33:34;15.83;;;3.13;;
60233;SDS011;49514;43.538;-5.708;2022-10-31T19:36:05;24.35;;;3.50;;
60233;SDS011;49514;43.538;-5.708;2022-10-31T19:38:35;25.50;;;3.70;;
60233;SDS011;49514;43.538;-5.708;2022-10-31T19:41:04;23.10;;;3.67;;
60233;SDS011;49514;43.538;-5.708;2022-10-31T19:43:34;17.42;;;3.38;;
60233;SDS011;49514;43.538;-5.708;2022-10-31T19:46:02;25.17;;;3.85;;
60233;SDS011;49514;43.538;-5.708;2022-10-31T19:48:30;20.02;;;3.60;;
60233;SDS011;49514;43.538;-5.708;2022-10-31T19:51:00;22.30;;;3.60;;
60233;SDS011;49514;43.538;-5.708;2022-10-31T19:53:32;20.75;;;3.38;;
60233;SDS011;49514;43.538;-5.708;2022-10-31T19:56:00;17.42;;;3.28;;
60233;SDS011;49514;43.538;-5.708;2022-10-31T19:58:27;17.45;;;3.30;;
60233;SDS011;49514;43.538;-5.708;2022-10-31T20:00:55;23.73;;;4.25;;
60233;SDS011;49514;43.538;-5.708;2022-10-31T20:03:21;19.05;;;3.38;;
60233;SDS011;49514;43.538;-5.708;2022-10-31T20:05:48;19.60;;;3.42;;
60233;SDS011;49514;43.538;-5.708;2022-10-31T20:08:19;19.25;;;3.47;;
60233;SDS011;49514;43.538;-5.708;2022-10-31T20:10:53;19.25;;;3.90;;
60233;SDS011;49514;43.538;-5.708;2022-10-31T20:13:25;15.48;;;2.83;;
60233;SDS011;49514;43.538;-5.708;2022-10-31T20:15:57;18.42;;;3.33;;
60233;SDS011;49514;43.538;-5.708;2022-10-31T20:18:44;22.88;;;3.65;;
60233;SDS011;49514;43.538;-5.708;2022-10-31T20:21:12;20.95;;;3.40;;
60233;SDS011;49514;43.538;-5.708;2022-10-31T20:23:40;22.58;;;3.53;;
60233;SDS011;49514;43.538;-5.708;2022-10-31T20:26:08;18.92;;;3.22;;
60233;SDS011;49514;43.538;-5.708;2022-10-31T20:28:37;21.98;;;3.90;;
60233;SDS011;49514;43.538;-5.708;2022-10-31T20:31:07;20.97;;;3.40;;
60233;SDS011;49514;43.538;-5.708;2022-10-31T20:33:37;18.45;;;2.90;;
60233;SDS011;49514;43.538;-5.708;2022-10-31T20:36:04;15.75;;;2.70;;
60233;SDS011;49514;43.538;-5.708;2022-10-31T20:38:33;18.13;;;3.00;;
60233;SDS011;49514;43.538;-5.708;2022-10-31T20:41:03;19.45;;;3.45;;
60233;SDS011;49514;43.538;-5.708;2022-10-31T20:43:31;20.35;;;3.13;;